Endeavor — WDE2605 — position and weather

sailwx.info

Track history (hours):
 
Tides and Currents Weather Stations Pressure Air Temp Water Temp Dewpoint Dewpoint Depression Visibility Wind Speed Wind Dir Waves Ship Positions

Endeavor

Owner: Daniel J. Fisheries, Warrenton, OR. More information available from US FCC via Universal Licensing System and Coast Guard Vessel Documentation Center.

Last reported at 2018-Aug-14 00:46 UTC. Time now 2018-Aug-14 07:04 UTC.
Position N 47°01' W 124°38'.

Type: Fishing. MMSI: 367327250.

Date/timePositionNaut miles runAvg speedWind from/ knotsBaromVisibWave heightAir tempDewpointWater temp
2018-Aug-14 00:46N 47°01' W 124°38'1 2.3
2018-Aug-14 00:29N 47°01' W 124°39'2 1.1
2018-Aug-13 22:43N 47°01' W 124°41'1 3.1
2018-Aug-13 22:30N 46°60' W 124°42'1 1.6
2018-Aug-13 22:00N 46°59' W 124°41'1 1.4
2018-Aug-13 21:30N 46°59' W 124°41'1 1.6
2018-Aug-13 21:00N 46°58' W 124°41'2 2.7
2018-Aug-13 20:21N 46°56' W 124°41'1 4.0
2018-Aug-13 20:00N 46°56' W 124°43'0 0.9
2018-Aug-13 19:30N 46°56' W 124°43'1 1.7
2018-Aug-13 19:01N 46°57' W 124°44'1 1.8
2018-Aug-13 18:31N 46°57' W 124°45'1 1.7
2018-Aug-13 18:00N 46°58' W 124°46'2 4.0
2018-Aug-13 17:30N 46°59' W 124°48'0 0.7
2018-Aug-13 17:00N 46°59' W 124°49'4 1.1
2018-Aug-13 13:42N 47°01' W 124°54'1 1.0
2018-Aug-13 12:49N 47°01' W 124°55'0 0.9
2018-Aug-13 12:30N 47°02' W 124°55'0 0.9
2018-Aug-13 11:59N 47°02' W 124°54'22 0.7
2018-Aug-12 04:03N 47°05' W 124°23'1 8.4
2018-Aug-12 03:57N 47°04' W 124°22'4 8.3
2018-Aug-12 03:30N 47°01' W 124°19'4 8.3
2018-Aug-12 03:00N 46°58' W 124°16'4 8.7
2018-Aug-12 02:30N 46°55' W 124°11'3 0.1
2018-Aug-10 07:12N 46°55' W 124°07'4 7.6
2018-Aug-10 06:44N 46°55' W 124°12'2 8.5
2018-Aug-10 06:30N 46°55' W 124°15'4 8.4
2018-Aug-10 06:00N 46°56' W 124°21'712.9
2018-Aug-10 05:30N 46°58' W 124°30'2 3.8
2018-Aug-10 05:00N 46°58' W 124°33'4 8.4
2018-Aug-10 04:30N 46°59' W 124°39'2 2.9
2018-Aug-10 03:53N 46°59' W 124°41'2 5.1
2018-Aug-10 03:30N 46°60' W 124°44'3 4.0
2018-Aug-10 02:41N 47°00' W 124°49'0 0.5
2018-Aug-10 02:30N 47°00' W 124°49'1 1.9
2018-Aug-10 02:00N 47°01' W 124°50'1 1.2
2018-Aug-10 01:27N 47°01' W 124°51'1 2.0
2018-Aug-10 01:00N 46°60' W 124°51'1 1.5
2018-Aug-10 00:30N 46°59' W 124°51'1 1.4
2018-Aug-09 23:52N 46°58' W 124°51'0 0.9
2018-Aug-09 23:30N 46°59' W 124°51'1 2.0
2018-Aug-09 23:00N 46°60' W 124°52'1 1.9
2018-Aug-09 22:20N 47°01' W 124°51'1 0.8
2018-Aug-09 20:59N 46°60' W 124°52'1 2.4
2018-Aug-09 20:30N 46°59' W 124°51'1 0.9
2018-Aug-09 19:48N 46°59' W 124°51'1 0.9
2018-Aug-09 18:09N 47°01' W 124°53'1 1.9
2018-Aug-09 17:41N 46°60' W 124°52'1 1.9
2018-Aug-09 17:16N 46°59' W 124°52'1 1.8
2018-Aug-09 16:54N 46°59' W 124°51'0 0.8
2018-Aug-09 16:31N 46°59' W 124°52'0 0.1
2018-Aug-09 13:09N 46°59' W 124°52'1 4.1
2018-Aug-09 12:59N 46°58' W 124°52'2 3.6
2018-Aug-09 12:31N 46°58' W 124°50'4 6.5
2018-Aug-09 11:49N 46°58' W 124°43'0 0.7
2018-Aug-09 11:30N 46°58' W 124°44'0 0.8
2018-Aug-09 11:00N 46°58' W 124°44'0 0.7
2018-Aug-09 10:26N 46°58' W 124°44'0 0.8
2018-Aug-09 09:55N 46°59' W 124°44'0 0.8
2018-Aug-09 09:30N 46°59' W 124°45'0 0.8
2018-Aug-09 08:57N 46°59' W 124°45'0 0.8
2018-Aug-09 08:31N 46°60' W 124°45'0 0.9
2018-Aug-09 08:00N 46°60' W 124°46'1 0.7
2018-Aug-09 06:30N 47°00' W 124°47'0 0.8
2018-Aug-09 06:00N 47°00' W 124°48'1 0.8
2018-Aug-09 05:15N 47°00' W 124°49'0 0.8
2018-Aug-09 04:50N 47°00' W 124°49'1 3.5
2018-Aug-09 04:31N 46°60' W 124°48'1 1.1
2018-Aug-09 03:59N 46°59' W 124°48'1 1.1
2018-Aug-09 03:31N 46°60' W 124°48'2 0.9
2018-Aug-09 01:06N 47°01' W 124°51'0 1.9
2018-Aug-09 01:00N 47°01' W 124°51'1 1.5
2018-Aug-09 00:30N 47°00' W 124°50'1 1.2
2018-Aug-09 00:00N 46°60' W 124°51'1 1.4
2018-Aug-08 23:30N 47°00' W 124°50'1 2.0
2018-Aug-08 23:00N 47°00' W 124°51'1 1.5
2018-Aug-08 22:30N 47°01' W 124°52'0 0.7
2018-Aug-08 21:59N 47°01' W 124°52'1 1.9
2018-Aug-08 21:31N 46°60' W 124°51'1 1.8
2018-Aug-08 21:00N 46°60' W 124°50'1 1.9
2018-Aug-08 20:30N 47°00' W 124°51'1 1.1
2018-Aug-08 20:00N 46°60' W 124°51'1 2.5
2018-Aug-08 19:30N 46°60' W 124°50'1 1.2
2018-Aug-08 19:00N 46°59' W 124°49'1 1.3
2018-Aug-08 18:10N 46°59' W 124°48'0 2.1
2018-Aug-08 18:00N 46°59' W 124°48'2 1.5
2018-Aug-08 16:33N 47°01' W 124°49'8 2.2
2018-Aug-08 12:48N 47°09' W 124°52'1 0.7
2018-Aug-08 11:50N 47°09' W 124°52'0 0.5
2018-Aug-08 11:27N 47°10' W 124°52'0 0.5
2018-Aug-08 10:59N 47°10' W 124°52'0 0.5
2018-Aug-08 10:19N 47°10' W 124°52'0 0.5
2018-Aug-08 10:00N 47°10' W 124°52'0 0.6
2018-Aug-08 09:25N 47°11' W 124°52'0 0.6
2018-Aug-08 09:00N 47°11' W 124°52'0 0.6
2018-Aug-08 08:30N 47°11' W 124°53'0 0.6
2018-Aug-08 08:00N 47°11' W 124°53'0 0.7
2018-Aug-08 07:25N 47°12' W 124°53'25 7.5
2018-Aug-08 04:09N 47°36' W 124°59'1 8.2
2018-Aug-08 04:00N 47°37' W 124°59'1 2.0
2018-Aug-08 03:29N 47°38' W 125°01'1 1.1
2018-Aug-08 03:00N 47°38' W 125°01'3 0.2
2018-Aug-07 12:49N 47°41' W 125°02'4 4.7
2018-Aug-07 12:01N 47°38' W 125°00'0 7.4
2018-Aug-07 11:59N 47°38' W 125°01'1 2.2
2018-Aug-07 11:30N 47°37' W 125°01'0 0.6
2018-Aug-07 11:00N 47°37' W 125°01'0 0.7
2018-Aug-07 10:30N 47°37' W 125°01'1 0.9
2018-Aug-07 09:34N 47°38' W 125°01'0 0.8
2018-Aug-07 09:19N 47°38' W 125°01'55 1.8
2018-Aug-06 02:12N 46°53' W 124°13'2 8.8
2018-Aug-06 02:00N 46°55' W 124°11'1 0.1
2018-Aug-05 10:20N 46°55' W 124°12'3 8.8
2018-Aug-05 10:00N 46°58' W 124°15'4 8.7
2018-Aug-05 09:30N 47°01' W 124°18'5 8.7
2018-Aug-05 08:56N 47°05' W 124°22'  
Track history (hours):
 
Tides and Currents Weather Stations Pressure Air Temp Water Temp Dewpoint Dewpoint Depression Visibility Wind Speed Wind Dir Waves Ship Positions

Endeavor

Owner: Daniel J. Fisheries, Warrenton, OR. More information available from US FCC via Universal Licensing System and Coast Guard Vessel Documentation Center.

Last reported at 2018-Aug-14 00:46 UTC. Time now 2018-Aug-14 07:04 UTC.
Position N 47°01' W 124°38'.

Type: Fishing. MMSI: 367327250.

Date/timePositionNaut miles runAvg speedWind from/ knotsBaromVisibWave heightAir tempDewpointWater temp
2018-Aug-14 00:46N 47°01' W 124°38'1 2.3
2018-Aug-14 00:29N 47°01' W 124°39'2 1.1
2018-Aug-13 22:43N 47°01' W 124°41'1 3.1
2018-Aug-13 22:30N 46°60' W 124°42'1 1.6
2018-Aug-13 22:00N 46°59' W 124°41'1 1.4
2018-Aug-13 21:30N 46°59' W 124°41'1 1.6
2018-Aug-13 21:00N 46°58' W 124°41'2 2.7
2018-Aug-13 20:21N 46°56' W 124°41'1 4.0
2018-Aug-13 20:00N 46°56' W 124°43'0 0.9
2018-Aug-13 19:30N 46°56' W 124°43'1 1.7
2018-Aug-13 19:01N 46°57' W 124°44'1 1.8
2018-Aug-13 18:31N 46°57' W 124°45'1 1.7
2018-Aug-13 18:00N 46°58' W 124°46'2 4.0
2018-Aug-13 17:30N 46°59' W 124°48'0 0.7
2018-Aug-13 17:00N 46°59' W 124°49'4 1.1
2018-Aug-13 13:42N 47°01' W 124°54'1 1.0
2018-Aug-13 12:49N 47°01' W 124°55'0 0.9
2018-Aug-13 12:30N 47°02' W 124°55'0 0.9
2018-Aug-13 11:59N 47°02' W 124°54'22 0.7
2018-Aug-12 04:03N 47°05' W 124°23'1 8.4
2018-Aug-12 03:57N 47°04' W 124°22'4 8.3
2018-Aug-12 03:30N 47°01' W 124°19'4 8.3
2018-Aug-12 03:00N 46°58' W 124°16'4 8.7
2018-Aug-12 02:30N 46°55' W 124°11'3 0.1
2018-Aug-10 07:12N 46°55' W 124°07'4 7.6
2018-Aug-10 06:44N 46°55' W 124°12'2 8.5
2018-Aug-10 06:30N 46°55' W 124°15'4 8.4
2018-Aug-10 06:00N 46°56' W 124°21'712.9
2018-Aug-10 05:30N 46°58' W 124°30'2 3.8
2018-Aug-10 05:00N 46°58' W 124°33'4 8.4
2018-Aug-10 04:30N 46°59' W 124°39'2 2.9
2018-Aug-10 03:53N 46°59' W 124°41'2 5.1
2018-Aug-10 03:30N 46°60' W 124°44'3 4.0
2018-Aug-10 02:41N 47°00' W 124°49'0 0.5
2018-Aug-10 02:30N 47°00' W 124°49'1 1.9
2018-Aug-10 02:00N 47°01' W 124°50'1 1.2
2018-Aug-10 01:27N 47°01' W 124°51'1 2.0
2018-Aug-10 01:00N 46°60' W 124°51'1 1.5
2018-Aug-10 00:30N 46°59' W 124°51'1 1.4
2018-Aug-09 23:52N 46°58' W 124°51'0 0.9
2018-Aug-09 23:30N 46°59' W 124°51'1 2.0
2018-Aug-09 23:00N 46°60' W 124°52'1 1.9
2018-Aug-09 22:20N 47°01' W 124°51'1 0.8
2018-Aug-09 20:59N 46°60' W 124°52'1 2.4
2018-Aug-09 20:30N 46°59' W 124°51'1 0.9
2018-Aug-09 19:48N 46°59' W 124°51'1 0.9
2018-Aug-09 18:09N 47°01' W 124°53'1 1.9
2018-Aug-09 17:41N 46°60' W 124°52'1 1.9
2018-Aug-09 17:16N 46°59' W 124°52'1 1.8
2018-Aug-09 16:54N 46°59' W 124°51'0 0.8
2018-Aug-09 16:31N 46°59' W 124°52'0 0.1
2018-Aug-09 13:09N 46°59' W 124°52'1 4.1
2018-Aug-09 12:59N 46°58' W 124°52'2 3.6
2018-Aug-09 12:31N 46°58' W 124°50'4 6.5
2018-Aug-09 11:49N 46°58' W 124°43'0 0.7
2018-Aug-09 11:30N 46°58' W 124°44'0 0.8
2018-Aug-09 11:00N 46°58' W 124°44'0 0.7
2018-Aug-09 10:26N 46°58' W 124°44'0 0.8
2018-Aug-09 09:55N 46°59' W 124°44'0 0.8
2018-Aug-09 09:30N 46°59' W 124°45'0 0.8
2018-Aug-09 08:57N 46°59' W 124°45'0 0.8
2018-Aug-09 08:31N 46°60' W 124°45'0 0.9
2018-Aug-09 08:00N 46°60' W 124°46'1 0.7
2018-Aug-09 06:30N 47°00' W 124°47'0 0.8
2018-Aug-09 06:00N 47°00' W 124°48'1 0.8
2018-Aug-09 05:15N 47°00' W 124°49'0 0.8
2018-Aug-09 04:50N 47°00' W 124°49'1 3.5
2018-Aug-09 04:31N 46°60' W 124°48'1 1.1
2018-Aug-09 03:59N 46°59' W 124°48'1 1.1
2018-Aug-09 03:31N 46°60' W 124°48'2 0.9
2018-Aug-09 01:06N 47°01' W 124°51'0 1.9
2018-Aug-09 01:00N 47°01' W 124°51'1 1.5
2018-Aug-09 00:30N 47°00' W 124°50'1 1.2
2018-Aug-09 00:00N 46°60' W 124°51'1 1.4
2018-Aug-08 23:30N 47°00' W 124°50'1 2.0
2018-Aug-08 23:00N 47°00' W 124°51'1 1.5
2018-Aug-08 22:30N 47°01' W 124°52'0 0.7
2018-Aug-08 21:59N 47°01' W 124°52'1 1.9
2018-Aug-08 21:31N 46°60' W 124°51'1 1.8
2018-Aug-08 21:00N 46°60' W 124°50'1 1.9
2018-Aug-08 20:30N 47°00' W 124°51'1 1.1
2018-Aug-08 20:00N 46°60' W 124°51'1 2.5
2018-Aug-08 19:30N 46°60' W 124°50'1 1.2
2018-Aug-08 19:00N 46°59' W 124°49'1 1.3
2018-Aug-08 18:10N 46°59' W 124°48'0 2.1
2018-Aug-08 18:00N 46°59' W 124°48'2 1.5
2018-Aug-08 16:33N 47°01' W 124°49'8 2.2
2018-Aug-08 12:48N 47°09' W 124°52'1 0.7
2018-Aug-08 11:50N 47°09' W 124°52'0 0.5
2018-Aug-08 11:27N 47°10' W 124°52'0 0.5
2018-Aug-08 10:59N 47°10' W 124°52'0 0.5
2018-Aug-08 10:19N 47°10' W 124°52'0 0.5
2018-Aug-08 10:00N 47°10' W 124°52'0 0.6
2018-Aug-08 09:25N 47°11' W 124°52'0 0.6
2018-Aug-08 09:00N 47°11' W 124°52'0 0.6
2018-Aug-08 08:30N 47°11' W 124°53'0 0.6
2018-Aug-08 08:00N 47°11' W 124°53'0 0.7
2018-Aug-08 07:25N 47°12' W 124°53'25 7.5
2018-Aug-08 04:09N 47°36' W 124°59'1 8.2
2018-Aug-08 04:00N 47°37' W 124°59'1 2.0
2018-Aug-08 03:29N 47°38' W 125°01'1 1.1
2018-Aug-08 03:00N 47°38' W 125°01'3 0.2
2018-Aug-07 12:49N 47°41' W 125°02'4 4.7
2018-Aug-07 12:01N 47°38' W 125°00'0 7.4
2018-Aug-07 11:59N 47°38' W 125°01'1 2.2
2018-Aug-07 11:30N 47°37' W 125°01'0 0.6
2018-Aug-07 11:00N 47°37' W 125°01'0 0.7
2018-Aug-07 10:30N 47°37' W 125°01'1 0.9
2018-Aug-07 09:34N 47°38' W 125°01'0 0.8
2018-Aug-07 09:19N 47°38' W 125°01'55 1.8
2018-Aug-06 02:12N 46°53' W 124°13'2 8.8
2018-Aug-06 02:00N 46°55' W 124°11'1 0.1
2018-Aug-05 10:20N 46°55' W 124°12'3 8.8
2018-Aug-05 10:00N 46°58' W 124°15'4 8.7
2018-Aug-05 09:30N 47°01' W 124°18'5 8.7
2018-Aug-05 08:56N 47°05' W 124°22'  

Dump ship's entire track history